GRR weather

Gerald R. Ford International Airport
Grand Rapids, Michigan, United States

Public forecast

Using degrees Fahrenheit for public forecast. Weather courtesy of forecast.io.

METAR (pilot weather report)

Retrieved 2019/05/27 06:53 UTC (34 minutes ago):

KGRR 270653Z AUTO 24003KT 10SM CLR 12/09 A3006 RMK AO2 SLP176 T01220094

TAF (pilot weather forecast)

Retrieved 2019/05/27 06:42 UTC (45 minutes ago):

TAF KGRR 270540Z 2706/2806 VRB03KT P6SM SCT250 FM271800 11009KT P6SM BKN120 FM272100 11010KT P6SM VCTS OVC050CB FM280100 11013KT 6SM -SHRA VCTS OVC025CB